SLLP/LPB METAR and TAF weather

Enter ICAO airport designator
Station Type Date Time Source
SLLP METAR 2020/04/07 07:00 UTC NOAA

SLLP 070700Z VRB02KT 9999 FEW013 FEW017CB BKN200 05/03 Q1040


Station Type Date Time Source
SLLP Decoded METAR 2020/04/07 07:00 UTC NOAA

La Paz / Alto, Bolivia (SLLP) 16-31S 068-11W 4038M
Apr 07, 2020 - 03:00 AM EDT / 2020.04.07 0700 UTC
Wind: Variable at 2 MPH (2 KT):0
Visibility: greater than 7 mile(s):0
Sky conditions: mostly cloudy
Weather: Cumulonimbus clouds observed
Temperature: 41 F (5 C)
Dew Point: 37 F (3 C)
Relative Humidity: 86%
Pressure (altimeter): 30.71 in. Hg (1040 hPa)
ob: SLLP 070700Z VRB02KT 9999 FEW013 FEW017CB BKN200 05/03 Q1040
cycle: 7

Station Type Date Time Source
SLLP TAF 2020/04/07 06:25 UTC NOAA

TAF SLLP 070400Z 0706/0806 08005KT 9999 SCT015 SCT070 TX16/0720Z TN04/0710Z
TEMPO 0707/0711 3000E VCFG FEW002 SCT012 BKN070
BECMG 0712 /0714 13008KT 9999 SCT015 SCT070
TEMPO 0718/0721 33013KT 8000 TSRA FEW020CB

Example: see airport list